Latest Weather Observations for St Helens

IDT60801

Issued at 5:11 pm EST Saturday 18 September 2021 (issued every 10 minutes, with the page automatically refreshed every 10 minutes)

About weather observations | Map of weather stations | Latest weather observations for TAS | Other Formats
Station Details ID: 092120 Name: ST HELENS AERODROME Lat: -41.34 Lon: 148.28 Height: 48.0 m
Data from the previous 72 hours. | See also: Recent months at St Helens
Date/Time
EST
Temp
°C
App
Temp
°C
Dew
Point
°C
Rel
Hum
%
Delta-T
°C
Wind Press
QNH
hPa
Press
MSL
hPa
Rain since
9am
mm
Dir  Spd
km/h
Gust
km/h
Spd
kts
Gust
kts
18/05:00pm 10.9 5.5 2.5 56 3.6 W 20 43 11 23 1004.3 1004.4 0.0
18/04:30pm 11.9 6.3 3.7 57 3.7 WNW 22 46 12 25 1003.9 1004.0 0.0
18/04:08pm 12.7 6.6 2.6 50 4.4 W 24 50 13 27 1003.9 1004.0 0.0
18/04:00pm 12.8 7.5 3.2 52 4.3 W 20 43 11 23 1003.8 1003.9 0.0
18/03:30pm 12.0 7.0 4.5 60 3.4 WNW 20 37 11 20 1003.8 1003.9 0.0
18/03:11pm 12.7 5.8 2.6 50 4.4 WNW 28 52 15 28 1003.6 1003.7 0.0
18/03:00pm 13.8 8.6 3.6 50 4.6 W 20 39 11 21 1003.2 1003.2 0.0
18/02:33pm 13.9 7.2 3.9 51 4.6 WNW 28 56 15 30 1002.5 1002.6 0.0
18/02:30pm 13.7 7.4 3.8 51 4.5 WNW 26 56 14 30 1002.7 1002.8 0.0
18/02:00pm 14.0 6.8 2.9 47 5.0 WNW 30 57 16 31 1002.6 1002.7 0.0
18/01:54pm 14.1 7.4 3.6 49 4.8 W 28 67 15 36 1002.4 1002.5 0.0
18/01:30pm 14.1 9.3 4.7 53 4.4 W 19 35 10 19 1002.6 1002.7 0.0
18/01:00pm 14.2 9.0 5.6 56 4.1 W 22 43 12 23 1002.9 1003.0 0.0
18/12:39pm 13.7 6.7 4.3 53 4.3 WNW 30 48 16 26 1002.6 1002.7 0.0
18/12:30pm 13.8 8.1 4.7 54 4.2 W 24 44 13 24 1002.7 1002.8 0.0
18/12:00pm 13.7 6.8 4.8 55 4.2 WNW 30 46 16 25 1002.6 1002.6 0.0
18/11:43am 13.4 6.9 4.6 55 4.1 WNW 28 57 15 31 1002.8 1002.9 0.0
18/11:30am 13.3 7.3 5.2 58 3.8 W 26 46 14 25 1003.0 1003.1 0.0
18/11:00am 13.5 6.7 4.9 56 4.0 W 30 57 16 31 1003.0 1003.1 0.0
18/10:56am 13.0 6.3 3.9 54 4.1 W 28 57 15 31 1003.0 1003.1 0.0
18/10:30am 13.7 8.7 4.6 54 4.2 W 20 39 11 21 1002.9 1003.0 0.0
18/10:00am 13.9 9.0 5.3 56 4.0 W 20 44 11 24 1003.0 1003.1 0.0
18/09:30am 13.4 7.5 5.8 60 3.6 WNW 26 43 14 23 1003.0 1003.1 0.0
18/09:00am 12.5 7.0 5.9 64 3.1 WNW 24 41 13 22 1002.9 1003.0 1.0
18/08:30am 11.7 6.4 6.6 71 2.4 WNW 24 41 13 22 1003.0 1003.1 1.0
18/08:00am 12.5 8.0 6.8 68 2.7 W 20 39 11 21 1002.6 1002.7 1.0
18/07:30am 11.8 6.5 6.9 72 2.3 WNW 24 41 13 22 1002.3 1002.4 1.0
18/07:00am 11.9 8.0 9.6 86 1.2 NNW 20 35 11 19 1002.3 1002.4 1.0
18/06:30am 11.8 7.0 9.0 83 1.4 NNW 24 35 13 19 1001.6 1001.6 0.6
18/06:00am 11.6 6.8 9.0 84 1.3 NNW 24 37 13 20 1002.0 1002.1 0.6
18/05:30am 11.4 6.9 8.6 83 1.4 N 22 32 12 17 1002.3 1002.4 0.6
18/05:00am 11.4 8.2 8.4 82 1.5 NNW 15 24 8 13 1002.5 1002.6 0.6
18/04:30am 11.3 8.4 8.3 82 1.5 NW 13 24 7 13 1002.3 1002.4 0.6
18/04:00am 11.5 9.6 8.9 84 1.3 NNW 9 13 5 7 1002.0 1002.1 0.6
18/03:30am 11.6 8.7 9.5 87 1.1 NW 15 20 8 11 1002.4 1002.5 0.6
18/03:00am 12.1 8.9 9.8 86 1.2 WNW 17 28 9 15 1002.7 1002.8 0.2
18/02:54am 12.2 8.4 9.8 85 1.2 NW 20 30 11 16 1002.5 1002.6 0.2
18/02:30am 12.2 7.9 10.8 91 0.7 N 24 35 13 19 1002.1 1002.2 0.2
18/02:23am 12.2 8.3 10.9 92 0.7 N 22 33 12 18 1002.4 1002.5 0.2
18/02:00am 12.2 8.7 10.9 92 0.7 N 20 32 11 17 1003.5 1003.6 0.2
18/01:30am 11.6 9.7 10.5 93 0.6 NW 11 19 6 10 1004.8 1004.9 0.2
18/01:00am 11.3 10.6 10.2 93 0.6 WNW 4 11 2 6 1005.0 1005.1 0.0
18/12:30am 11.5 9.9 10.2 92 0.7 WNW 9 13 5 7 1005.7 1005.8 0.0
18/12:00am 11.5 10.3 10.2 92 0.7 W 7 11 4 6 1006.4 1006.6 0.0
 
Date/Time
EST
Temp
°C
App
Temp
°C
Dew
Point
°C
Rel
Hum
%
Delta-T
°C
Wind Press
QNH
hPa
Press
MSL
hPa
Rain since
9am
mm
Dir  Spd
km/h
Gust
km/h
Spd
kts
Gust
kts
17/11:30pm 11.3 11.1 10.4 94 0.5 WNW 2 7 1 4 1007.1 1007.2 0.0
17/11:00pm 11.6 11.4 10.3 92 0.7 NNW 2 7 1 4 1007.9 1007.9 0.0
17/10:30pm 11.7 11.4 10.1 90 0.8 W 2 6 1 3 1008.4 1008.4 0.0
17/10:18pm 11.7 11.4 10.1 90 0.8 WNW 2 7 1 4 1008.6 1008.6 0.0
17/10:00pm 12.1 10.5 10.2 88 1.0 NNW 9 13 5 7 1009.1 1009.1 0.0
17/09:30pm 11.7 10.0 9.8 88 1.0 NW 9 17 5 9 1009.6 1009.6 0.0
17/09:00pm 11.6 9.8 9.5 87 1.1 NW 9 15 5 8 1009.9 1009.9 0.0
17/08:30pm 11.4 10.2 9.7 89 0.9 NNW 6 15 3 8 1009.9 1009.9 0.0
17/08:24pm 11.5 11.1 9.8 89 0.9 NW 2 7 1 4 1010.0 1010.0 0.0
17/08:12pm 11.8 10.1 10.0 89 0.9 NNW 9 15 5 8 1010.2 1010.2 0.0
17/08:00pm 11.9 9.6 10.3 90 0.8 N 13 19 7 10 1010.2 1010.2 0.0
17/07:52pm 12.0 10.5 10.4 90 0.8 N 9 15 5 8 1010.3 1010.3 0.0
17/07:30pm 12.2 10.3 10.6 90 0.8 N 11 17 6 9 1010.5 1010.5 0.0
17/07:00pm 12.2 10.6 10.3 88 1.0 NNE 9 15 5 8 1011.1 1011.1 0.0
17/06:30pm 12.2 10.6 10.1 87 1.1 N 9 13 5 7 1011.7 1011.7 0.0
17/06:00pm 12.4 10.1 10.3 87 1.1 N 13 19 7 10 1011.7 1011.8 0.0
17/05:30pm 12.4 10.4 10.3 87 1.1 N 11 20 6 11 1012.1 1012.1 0.0
17/05:00pm 12.6 10.3 10.3 86 1.2 N 13 17 7 9 1012.3 1012.3 0.0
17/04:30pm 12.6 11.0 10.1 85 1.3 N 9 15 5 8 1012.5 1012.5 0.0
17/04:00pm 12.9 9.6 9.7 81 1.6 NNE 17 26 9 14 1012.2 1012.2 0.0
17/03:30pm 13.1 9.8 9.4 78 1.9 NNE 17 24 9 13 1012.6 1012.6 0.0
17/03:00pm 13.8 10.7 9.0 73 2.4 N 15 22 8 12 1013.4 1013.4 0.0
17/02:30pm 13.3 10.3 9.4 77 2.0 NNE 15 24 8 13 1013.8 1013.8 0.0
17/02:00pm 13.1 9.6 8.6 74 2.3 NNE 17 26 9 14 1014.1 1014.1 0.0
17/01:30pm 13.1 9.5 8.2 72 2.4 NNE 17 24 9 13 1014.7 1014.7 0.0
17/01:00pm 12.8 9.1 7.9 72 2.4 NNE 17 26 9 14 1015.3 1015.3 0.0
17/12:30pm 12.4 8.9 7.1 70 2.6 N 15 20 8 11 1016.0 1016.0 0.0
17/12:00pm 12.6 9.3 7.9 73 2.3 N 15 20 8 11 1016.3 1016.4 0.0
17/11:30am 11.9 8.8 7.2 73 2.3 NNE 13 22 7 12 1016.5 1016.5 0.0
17/11:00am 11.8 9.0 7.1 73 2.3 N 11 20 6 11 1017.0 1017.0 0.0
17/10:30am 12.2 8.9 6.3 67 2.8 NNE 13 20 7 11 1017.3 1017.3 0.0
17/10:00am 11.3 9.1 5.4 67 2.7 NNW 6 9 3 5 1017.8 1017.8 0.0
17/09:30am 10.1 7.8 4.9 70 2.3 WNW 6 9 3 5 1018.4 1018.4 0.0
17/09:00am 7.9 5.4 4.8 81 1.4 NW 7 9 4 5 1018.7 1018.8 0.2
17/08:30am 6.5 3.5 4.3 86 0.9 NW 9 13 5 7 1019.0 1019.1 0.2
17/08:00am 5.1 1.7 3.8 91 0.5 NW 11 13 6 7 1019.2 1019.3 0.2
17/07:30am 3.9 -0.1 3.0 94 0.4 NW 13 15 7 8 1019.6 1019.7 0.2
17/07:00am 2.9 -1.2 2.3 96 0.2 NW 13 17 7 9 1019.8 1019.9 0.2
17/06:30am 2.3 -1.9 1.7 96 0.2 NW 13 15 7 8 1019.7 1019.8 0.0
17/06:00am 2.3 -2.3 1.7 96 0.2 NW 15 17 8 9 1019.9 1019.9 0.0
17/05:30am 2.7 -1.4 2.3 97 0.2 NNW 13 17 7 9 1019.9 1020.0 0.0
17/05:00am 2.6 -1.5 2.0 96 0.2 NW 13 13 7 7 1019.9 1020.0 0.0
17/04:30am 2.5 -1.7 1.9 96 0.2 NW 13 15 7 8 1020.1 1020.2 0.0
17/04:00am 2.8 -1.3 2.2 96 0.2 NNW 13 15 7 8 1020.0 1020.1 0.0
17/03:30am 3.2 -0.9 2.5 95 0.3 NNW 13 15 7 8 1020.3 1020.4 0.0
17/03:00am 2.9 -0.8 2.5 97 0.2 NNW 11 15 6 8 1020.7 1020.8 0.0
17/02:30am 2.9 -1.2 2.5 97 0.2 NNW 13 15 7 8 1020.9 1021.0 0.0
17/02:00am 3.5 -0.1 2.9 96 0.2 NW 11 13 6 7 1021.2 1021.3 0.0
17/01:30am 3.5 -0.5 3.1 97 0.2 NW 13 13 7 7 1021.6 1021.7 0.0
17/01:00am 3.8 0.6 3.1 95 0.3 NNW 9 11 5 6 1022.0 1022.1 0.0
17/12:30am 4.5 1.8 3.8 95 0.3 NNW 7 9 4 5 1022.2 1022.3 0.0
17/12:00am 4.7 3.3 3.8 94 0.4 CALM 0 6 0 3 1022.4 1022.5 0.0
 
Date/Time
EST
Temp
°C
App
Temp
°C
Dew
Point
°C
Rel
Hum
%
Delta-T
°C
Wind Press
QNH
hPa
Press
MSL
hPa
Rain since
9am
mm
Dir  Spd
km/h
Gust
km/h
Spd
kts
Gust
kts
16/11:30pm 5.0 2.4 4.0 93 0.4 NNW 7 11 4 6 1022.7 1022.8 0.0
16/11:00pm 4.9 2.4 4.0 94 0.4 N 6 7 3 4 1022.9 1023.0 0.0
16/10:30pm 6.0 4.1 5.0 93 0.4 NW 4 7 2 4 1023.1 1023.2 0.0
16/10:00pm 6.8 4.4 4.3 84 1.1 WNW 6 9 3 5 1023.1 1023.2 0.0
16/09:30pm 6.6 4.3 4.6 87 0.9 WNW 6 9 3 5 1023.0 1023.1 0.0
16/09:00pm 7.2 4.8 5.2 87 0.9 NW 7 9 4 5 1023.0 1023.1 0.0
16/08:30pm 7.7 5.6 5.8 88 0.9 NNW 6 7 3 4 1022.9 1023.0 0.0
16/08:00pm 8.9 6.7 5.3 78 1.6 NNW 6 7 3 4 1022.6 1022.7 0.0
16/07:30pm 9.3 7.2 5.9 79 1.6 NNE 6 9 3 5 1022.5 1022.6 0.0
16/07:00pm 9.9 7.7 6.1 77 1.8 N 7 11 4 6 1022.4 1022.5 0.0
16/06:30pm 10.5 8.4 6.8 78 1.7 NNE 7 11 4 6 1022.3 1022.4 0.0
16/06:00pm 11.2 8.3 6.7 74 2.1 NNE 11 17 6 9 1022.3 1022.4 0.0
16/05:30pm 11.7 8.3 6.0 68 2.7 NNE 13 17 7 9 1022.3 1022.4 0.0
16/05:00pm 12.2 8.5 4.4 59 3.5 NNE 13 17 7 9 1022.3 1022.4 0.0
16/04:30pm 13.2 9.5 4.4 55 4.0 NNE 13 17 7 9 1022.2 1022.3 0.0
16/04:00pm 13.3 9.7 5.2 58 3.8 N 13 20 7 11 1022.4 1022.5 0.0
16/03:30pm 12.3 8.5 3.8 56 3.8 NNE 13 19 7 10 1022.6 1022.7 0.0
16/03:00pm 12.6 9.3 4.8 59 3.6 NNE 11 17 6 9 1023.0 1023.1 0.0
16/02:30pm 12.3 7.9 4.8 60 3.4 NNE 17 22 9 12 1023.0 1023.1 0.0
16/02:00pm 12.5 8.7 5.7 63 3.2 ENE 15 22 8 12 1023.2 1023.3 0.0
16/01:30pm 13.3 10.0 6.6 64 3.2 NE 13 20 7 11 1023.2 1023.3 0.0
16/01:00pm 13.2 9.5 6.1 62 3.4 NNE 15 20 8 11 1023.6 1023.7 0.0
16/12:30pm 13.1 9.8 6.5 64 3.2 NE 13 20 7 11 1023.9 1024.0 0.0
16/12:00pm 12.6 9.6 6.2 65 3.0 NNE 11 17 6 9 1024.3 1024.4 0.0
16/11:30am 12.7 10.0 5.8 63 3.2 NNW 9 13 5 7 1024.6 1024.7 0.0
16/11:00am 12.2 9.6 6.3 67 2.8 NE 9 13 5 7 1025.1 1025.2 0.0
16/10:30am 11.6 9.5 5.9 68 2.7 NNE 6 9 3 5 1025.4 1025.5 0.0
16/10:00am 12.1 9.6 6.6 69 2.6 N 9 15 5 8 1025.6 1025.7 0.0
16/09:30am 12.9 10.4 6.5 65 3.1 N 9 13 5 7 1025.8 1025.9 0.0
16/09:00am 11.8 9.2 6.3 69 2.6 NNW 9 13 5 7 1026.0 1026.1 0.0
16/08:30am 11.1 9.4 7.4 78 1.8 NNW 6 7 3 4 1026.2 1026.3 0.0
16/08:00am 9.6 7.7 6.9 83 1.3 NW 6 7 3 4 1026.2 1026.3 0.0
16/07:30am 8.6 7.1 6.7 88 0.9 NNW 4 6 2 3 1026.1 1026.2 0.0
16/07:00am 7.6 5.5 6.5 93 0.5 NW 7 9 4 5 1026.1 1026.2 0.0
16/06:30am 7.3 5.3 6.4 94 0.4 WNW 6 9 3 5 1025.9 1026.0 0.0
16/06:00am 7.7 4.8 6.6 93 0.5 NW 11 13 6 7 1025.6 1025.7 0.0
16/05:30am 7.8 4.9 6.7 93 0.5 NNW 11 13 6 7 1025.6 1025.7 0.0
16/05:00am 8.1 5.7 6.9 92 0.6 NNW 9 11 5 6 1025.6 1025.7 0.0
16/04:30am 8.0 6.1 6.5 90 0.7 NW 6 9 3 5 1025.6 1025.7 0.0
16/04:00am 8.1 6.0 6.6 90 0.7 NNW 7 9 4 5 1025.6 1025.7 0.0
16/03:30am 8.1 6.2 6.7 91 0.6 NW 6 7 3 4 1025.6 1025.7 0.0
16/03:00am 8.0 6.5 6.6 91 0.6 NW 4 7 2 4 1025.7 1025.8 0.0
16/02:30am 8.0 6.5 6.8 92 0.6 WNW 4 7 2 4 1025.9 1026.0 0.0
16/02:00am 8.0 7.2 6.6 91 0.6 CALM 0 2 0 1 1026.1 1026.2 0.0
16/01:30am 8.2 7.4 6.5 89 0.8 CALM 0 2 0 1 1026.4 1026.5 0.0
16/01:00am 8.3 7.1 6.6 89 0.8 NW 2 7 1 4 1026.6 1026.7 0.0
16/12:30am 8.5 6.7 7.0 90 0.7 NNW 6 9 3 5 1026.5 1026.6 0.0
16/12:00am 8.5 6.5 7.0 90 0.7 NW 7 9 4 5 1026.5 1026.6 0.0
 
Date/Time
EST
Temp
°C
App
Temp
°C
Dew
Point
°C
Rel
Hum
%
Delta-T
°C
Wind Press
QNH
hPa
Press
MSL
hPa
Rain since
9am
mm
Dir  Spd
km/h
Gust
km/h
Spd
kts
Gust
kts
15/11:30pm 8.6 6.6 7.1 90 0.7 NW 7 9 4 5 1026.5 1026.6 0.0
15/11:00pm 8.6 6.8 7.1 90 0.7 NW 6 7 3 4 1026.5 1026.6 0.0
15/10:30pm 8.8 7.4 7.3 90 0.7 NW 4 9 2 5 1026.7 1026.8 0.0
15/10:00pm 9.1 8.5 7.4 89 0.8 CALM 0 0 0 0 1026.8 1026.9 0.0
15/09:30pm 9.2 8.5 7.0 86 1.0 CALM 0 0 0 0 1026.8 1026.9 0.0
15/09:00pm 9.3 8.5 6.4 82 1.3 CALM 0 0 0 0 1026.7 1026.8 0.0
15/08:30pm 9.6 8.7 6.0 78 1.7 CALM 0 0 0 0 1026.7 1026.8 0.0
15/08:00pm 9.9 9.0 5.9 76 1.8 CALM 0 0 0 0 1026.5 1026.6 0.0
15/07:30pm 9.7 8.8 6.1 78 1.7 CALM 0 0 0 0 1026.5 1026.6 0.0
15/07:00pm 10.1 9.1 5.7 74 2.0 CALM 0 0 0 0 1026.4 1026.5 0.0
15/06:30pm 10.1 9.2 5.9 75 1.9 CALM 0 0 0 0 1026.3 1026.4 0.0
15/06:00pm 10.2 9.3 6.2 76 1.8 CALM 0 0 0 0 1026.2 1026.3 0.0
15/05:30pm 10.5 9.7 6.6 77 1.8 CALM 0 0 0 0 1026.2 1026.3 0.0

Other formats

Comma delimited format used in spreadsheet applications
http://www.bom.gov.au/fwo/IDT60801/IDT60801.95981.axf

JavaScript Object Notation format (JSON) in row-major order
http://www.bom.gov.au/fwo/IDT60801/IDT60801.95981.json

Data quality

Most of these data are generated automatically and are frequently updated. Quality checks on data are not normally performed. It is possible for incorrect values to appear. Refer to information at About Latest Weather Observations and please check the disclaimer before using these data.